createdAt,value
2023-02-17T00:01:40.065Z,55.90
2023-02-17T00:04:08.603Z,51.25
2023-02-17T00:06:39.077Z,46.97
2023-02-17T00:09:07.605Z,42.95
2023-02-17T00:11:36.020Z,50.38
2023-02-17T00:14:05.702Z,55.25
2023-02-17T00:16:34.561Z,41.20
2023-02-17T00:19:05.123Z,50.25
2023-02-17T00:21:33.758Z,37.45
2023-02-17T00:24:02.380Z,44.90
2023-02-17T00:26:30.873Z,41.25
2023-02-17T00:28:59.496Z,31.98
2023-02-17T00:31:28.032Z,31.77
2023-02-17T00:33:57.131Z,30.38
2023-02-17T00:36:27.183Z,33.85
2023-02-17T00:38:59.042Z,31.67
2023-02-17T00:41:28.821Z,37.95
2023-02-17T00:43:59.530Z,25.52
2023-02-17T00:46:28.491Z,38.95
2023-02-17T00:48:57.722Z,30.20
2023-02-17T00:51:27.010Z,36.20
2023-02-17T00:53:55.342Z,28.13
2023-02-17T00:56:23.737Z,34.75
2023-02-17T00:58:52.045Z,27.17
2023-02-17T01:01:20.328Z,34.60
2023-02-17T01:03:48.690Z,33.42
2023-02-17T01:06:25.379Z,39.65
2023-02-17T01:08:54.168Z,46.83
2023-02-17T01:11:25.704Z,34.92
2023-02-17T01:13:55.108Z,55.17
2023-02-17T01:16:25.745Z,48.45
2023-02-17T01:18:54.576Z,43.70
2023-02-17T01:21:25.983Z,42.70
2023-02-17T01:23:57.245Z,36.93
2023-02-17T01:26:28.070Z,34.17
2023-02-17T01:28:56.957Z,49.30
2023-02-17T01:31:26.264Z,42.15
2023-02-17T01:33:57.312Z,35.67
2023-02-17T01:36:26.028Z,43.70
2023-02-17T01:38:54.620Z,34.35
2023-02-17T01:41:25.731Z,34.03
2023-02-17T01:44:12.020Z,45.58
2023-02-17T01:46:42.051Z,47.50
2023-02-17T01:49:18.912Z,39.17
2023-02-17T01:51:53.040Z,37.58
2023-02-17T01:54:48.226Z,39.88
2023-02-17T01:57:22.417Z,47.25
2023-02-17T01:59:54.671Z,48.47
2023-02-17T02:04:53.898Z,37.95
2023-02-17T02:07:28.563Z,35.35
2023-02-17T02:09:58.732Z,32.17
2023-02-17T02:12:45.814Z,38.63
2023-02-17T02:15:20.484Z,27.75
2023-02-17T02:18:24.360Z,37.22
2023-02-17T02:21:11.111Z,42.80
2023-02-17T02:23:48.505Z,39.47
2023-02-17T02:26:54.800Z,29.08
2023-02-17T02:29:38.462Z,37.15
2023-02-17T02:32:51.290Z,43.47
2023-02-17T02:35:39.973Z,50.30
2023-02-17T02:38:20.037Z,43.85
2023-02-17T02:40:54.658Z,32.50
2023-02-17T02:43:26.807Z,36.10
2023-02-17T02:45:55.201Z,38.38
2023-02-17T02:48:31.300Z,40.28
2023-02-17T02:51:14.700Z,53.25
2023-02-17T02:54:05.297Z,46.88
2023-02-17T02:56:49.714Z,42.30
2023-02-17T02:59:34.278Z,39.60
2023-02-17T03:02:14.912Z,32.47
2023-02-17T03:05:26.449Z,35.45
2023-02-17T03:08:09.319Z,35.92
2023-02-17T03:10:49.051Z,28.45
2023-02-17T03:13:18.054Z,31.15
2023-02-17T03:15:47.049Z,31.88
2023-02-17T03:18:15.869Z,32.55
2023-02-17T03:20:57.560Z,36.55
2023-02-17T03:23:26.660Z,24.17
2023-02-17T03:25:54.949Z,29.13
2023-02-17T03:28:24.305Z,35.60
2023-02-17T03:30:53.027Z,25.02
2023-02-17T03:33:21.240Z,23.00
2023-02-17T03:35:49.625Z,29.27
2023-02-17T03:38:17.769Z,34.80
2023-02-17T03:40:46.173Z,27.88
2023-02-17T03:43:14.744Z,38.33
2023-02-17T03:45:43.076Z,35.65
2023-02-17T03:48:11.347Z,37.42
2023-02-17T03:50:39.757Z,31.05
2023-02-17T03:53:08.059Z,28.35
2023-02-17T03:55:36.393Z,34.38
2023-02-17T03:58:05.030Z,23.55
2023-02-17T04:00:33.402Z,31.95
2023-02-17T04:03:01.658Z,37.90
2023-02-17T04:05:29.956Z,34.75
2023-02-17T04:07:58.251Z,29.75
2023-02-17T04:10:26.886Z,36.45
2023-02-17T04:12:55.536Z,43.70
2023-02-17T04:15:23.980Z,44.65
2023-02-17T04:17:52.146Z,35.47
2023-02-17T04:20:20.501Z,35.13
2023-02-17T04:22:48.754Z,69.07
2023-02-17T04:25:16.956Z,54.03
2023-02-17T04:27:45.301Z,46.30
2023-02-17T04:30:14.190Z,41.67
2023-02-17T04:32:42.427Z,31.15
2023-02-17T04:35:10.741Z,21.30
2023-02-17T04:37:38.823Z,36.97
2023-02-17T04:40:08.378Z,23.42
2023-02-17T04:42:37.208Z,29.73
2023-02-17T04:45:07.882Z,34.75
2023-02-17T04:47:36.768Z,28.67
2023-02-17T04:50:07.305Z,35.33
2023-02-17T04:52:35.791Z,20.80
2023-02-17T04:55:05.005Z,33.28
2023-02-17T04:57:33.279Z,44.03
2023-02-17T05:00:01.500Z,29.83
2023-02-17T05:02:30.022Z,34.67
2023-02-17T05:18:10.700Z,25.70
2023-02-17T05:20:41.195Z,27.45
2023-02-17T05:23:11.365Z,25.42
2023-02-17T05:25:41.808Z,28.00
2023-02-17T05:28:12.035Z,32.30
2023-02-17T05:30:42.499Z,38.83
2023-02-17T05:33:12.790Z,28.02
2023-02-17T05:35:43.308Z,31.10
2023-02-17T05:38:16.774Z,21.55
2023-02-17T05:40:46.993Z,24.20
2023-02-17T05:43:17.249Z,30.83
2023-02-17T05:45:47.172Z,42.22
2023-02-17T05:48:17.675Z,20.98
2023-02-17T05:50:47.921Z,22.45
2023-02-17T05:53:17.842Z,23.77
2023-02-17T05:55:48.821Z,29.00
2023-02-17T05:58:19.166Z,30.27
2023-02-17T06:00:49.740Z,28.95
2023-02-17T06:03:20.925Z,28.25
2023-02-17T06:05:51.140Z,19.58
2023-02-17T06:08:21.024Z,21.08
2023-02-17T06:10:51.206Z,25.45
2023-02-17T06:13:22.410Z,28.20
2023-02-17T06:15:52.976Z,28.83
2023-02-17T06:18:23.205Z,28.38
2023-02-17T06:20:56.178Z,22.00
2023-02-17T06:23:27.664Z,25.17
2023-02-17T06:25:58.230Z,36.15
2023-02-17T06:28:28.463Z,25.75
2023-02-17T06:30:59.023Z,24.23
2023-02-17T06:33:29.216Z,24.48
2023-02-17T06:35:59.449Z,35.05
2023-02-17T06:38:30.016Z,28.55
2023-02-17T06:41:00.311Z,36.38
2023-02-17T06:43:30.791Z,40.17
2023-02-17T06:46:01.295Z,42.65
2023-02-17T06:48:31.871Z,38.63
2023-02-17T06:51:16.368Z,58.60
2023-02-17T06:53:53.820Z,31.92
2023-02-17T06:56:29.052Z,27.98
2023-02-17T06:59:04.564Z,31.58
2023-02-17T07:01:34.532Z,30.13
2023-02-17T07:04:04.861Z,35.38
2023-02-17T07:06:35.046Z,45.45
2023-02-17T07:09:05.454Z,52.55
2023-02-17T07:11:35.418Z,46.05
2023-02-17T07:14:05.588Z,29.95
2023-02-17T07:16:39.170Z,27.90
2023-02-17T07:19:19.593Z,31.63
2023-02-17T07:22:12.444Z,42.50
2023-02-17T07:27:28.000Z,38.92
2023-02-17T07:29:58.445Z,33.40
2023-02-17T07:32:30.121Z,34.55
2023-02-17T07:35:03.902Z,35.03
2023-02-17T07:40:51.203Z,55.17
2023-02-17T07:43:24.818Z,65.68
2023-02-17T07:45:58.272Z,68.38
2023-02-17T07:48:28.017Z,72.95
2023-02-17T07:50:56.926Z,58.97
2023-02-17T07:53:27.502Z,66.10
2023-02-17T07:55:55.744Z,63.60
2023-02-17T07:58:24.081Z,46.33
2023-02-17T08:00:52.177Z,53.45
2023-02-17T08:03:20.383Z,48.75
2023-02-17T08:05:49.130Z,44.88
2023-02-17T08:08:17.886Z,49.30
2023-02-17T08:10:46.230Z,41.63
2023-02-17T08:13:14.425Z,35.33
2023-02-17T08:15:42.649Z,35.92
2023-02-17T08:18:11.203Z,18.65
2023-02-17T08:20:39.479Z,33.25
2023-02-17T08:23:07.727Z,30.15
2023-02-17T08:25:37.276Z,24.65
2023-02-17T08:28:06.253Z,33.03
2023-02-17T08:30:39.979Z,31.45
2023-02-17T08:33:08.424Z,38.47
2023-02-17T08:35:37.161Z,39.70
2023-02-17T08:38:05.247Z,23.30
2023-02-17T08:40:33.596Z,21.25
2023-02-17T08:43:03.500Z,31.65
2023-02-17T08:45:32.034Z,28.13
2023-02-17T08:48:00.372Z,20.77
2023-02-17T08:50:28.830Z,28.88
2023-02-17T08:52:57.157Z,20.88
2023-02-17T08:55:25.531Z,34.78
2023-02-17T08:57:53.960Z,25.10
2023-02-17T09:00:22.644Z,30.58
2023-02-17T09:02:51.042Z,41.58
2023-02-17T09:05:19.550Z,22.00
2023-02-17T09:07:47.850Z,41.50
2023-02-17T09:10:16.268Z,30.50
2023-02-17T09:12:44.594Z,34.08
2023-02-17T09:15:14.228Z,32.92
2023-02-17T09:17:42.498Z,31.13
2023-02-17T09:20:23.967Z,44.35
2023-02-17T09:22:53.297Z,52.58
2023-02-17T09:25:21.511Z,37.25
2023-02-17T09:27:50.109Z,24.17
2023-02-17T09:30:18.482Z,25.90
2023-02-17T09:32:46.923Z,35.13
2023-02-17T09:35:21.901Z,31.73
2023-02-17T09:37:50.316Z,30.35
2023-02-17T09:40:31.128Z,30.63
2023-02-17T09:42:59.730Z,31.23
2023-02-17T09:45:34.452Z,20.20
2023-02-17T09:48:07.193Z,25.90
2023-02-17T09:50:58.968Z,24.33
2023-02-17T09:53:36.618Z,33.10
2023-02-17T09:56:10.139Z,40.83
2023-02-17T09:58:50.461Z,35.80
2023-02-17T10:01:26.586Z,26.08
2023-02-17T10:04:07.667Z,22.35
2023-02-17T10:06:40.564Z,20.35
2023-02-17T10:09:28.654Z,34.15
2023-02-17T10:12:20.294Z,18.17
2023-02-17T10:15:04.535Z,26.15
2023-02-17T10:17:52.003Z,40.38
2023-02-17T10:20:42.762Z,27.58
2023-02-17T10:23:23.310Z,29.33
2023-02-17T10:26:28.750Z,37.85
2023-02-17T10:28:56.985Z,33.25
2023-02-17T10:31:40.672Z,33.58
2023-02-17T10:34:21.001Z,134.43
2023-02-17T10:36:54.298Z,42.10
2023-02-17T10:39:34.668Z,62.72
2023-02-17T10:42:04.222Z,38.22
2023-02-17T10:44:37.418Z,48.88
2023-02-17T10:47:06.526Z,45.40
2023-02-17T10:49:44.094Z,29.58
2023-02-17T10:52:24.370Z,37.28
2023-02-17T10:55:06.384Z,36.17
2023-02-17T10:57:40.018Z,35.15
2023-02-17T11:00:15.350Z,29.45
2023-02-17T11:02:46.659Z,29.98
2023-02-17T11:05:33.756Z,36.90
2023-02-17T11:08:06.751Z,31.55
2023-02-17T11:10:42.029Z,26.33
2023-02-17T11:13:32.770Z,39.15
2023-02-17T11:16:02.088Z,25.10
2023-02-17T11:18:35.769Z,31.42
2023-02-17T11:21:16.290Z,34.67
2023-02-17T11:23:59.766Z,40.00
2023-02-17T11:26:30.989Z,25.80
2023-02-17T11:29:16.583Z,26.48
2023-02-17T11:32:08.679Z,29.52
2023-02-17T11:34:43.620Z,25.88
2023-02-17T11:37:14.668Z,23.13
2023-02-17T11:39:49.850Z,18.80
2023-02-17T11:42:21.687Z,26.73
2023-02-17T11:44:50.491Z,35.58
2023-02-17T11:47:39.812Z,28.40
2023-02-17T11:50:39.019Z,27.88
2023-02-17T11:53:39.496Z,24.33
2023-02-17T11:56:31.332Z,30.52
2023-02-17T11:59:28.657Z,21.20
2023-02-17T12:01:59.599Z,24.60
2023-02-17T12:04:42.615Z,27.35
2023-02-17T12:07:29.374Z,32.17
2023-02-17T12:10:18.030Z,35.63
2023-02-17T12:13:03.625Z,41.30
2023-02-17T12:15:35.176Z,28.10
2023-02-17T12:20:42.859Z,26.80
2023-02-17T12:23:46.492Z,41.47
2023-02-17T12:26:39.193Z,33.97
2023-02-17T12:29:22.143Z,27.20
2023-02-17T12:32:14.157Z,41.78
2023-02-17T12:34:48.928Z,21.50
2023-02-17T12:37:26.531Z,24.42
2023-02-17T12:40:04.551Z,27.23
2023-02-17T12:42:49.932Z,25.40
2023-02-17T12:45:22.891Z,30.65
2023-02-17T12:48:02.993Z,32.65
2023-02-17T12:50:39.941Z,38.88
2023-02-17T12:53:15.334Z,35.30
2023-02-17T12:55:55.755Z,29.75
2023-02-17T12:58:28.319Z,19.77
2023-02-17T13:01:16.784Z,26.98
2023-02-17T13:03:45.154Z,32.00
2023-02-17T13:06:40.363Z,46.08
2023-02-17T13:09:36.714Z,37.53
2023-02-17T13:12:18.907Z,26.83
2023-02-17T13:14:53.472Z,36.10
2023-02-17T13:17:55.907Z,37.22
2023-02-17T13:20:38.614Z,27.83
2023-02-17T13:23:12.065Z,24.48
2023-02-17T13:25:40.526Z,36.38
2023-02-17T13:28:33.413Z,24.75
2023-02-17T13:31:20.991Z,29.85
2023-02-17T13:34:00.251Z,33.08
2023-02-17T13:36:30.016Z,25.52
2023-02-17T13:39:26.396Z,40.38
2023-02-17T13:41:59.965Z,54.55
2023-02-17T13:44:34.183Z,31.73
2023-02-17T13:47:17.632Z,34.60
2023-02-17T13:49:53.872Z,37.17
2023-02-17T13:52:27.974Z,40.90
2023-02-17T13:54:57.432Z,37.72
2023-02-17T13:57:35.143Z,33.45
2023-02-17T14:00:28.279Z,55.08
2023-02-17T14:03:07.040Z,39.72
2023-02-17T14:05:43.101Z,52.05
2023-02-17T14:08:21.317Z,49.55
2023-02-17T14:10:50.048Z,38.58
2023-02-17T14:13:18.867Z,53.45
2023-02-17T14:15:54.676Z,42.38
2023-02-17T14:18:34.599Z,49.28
2023-02-17T14:21:06.941Z,31.15
2023-02-17T14:23:48.002Z,40.47
2023-02-17T14:26:43.008Z,35.43
2023-02-17T14:29:13.184Z,52.15
2023-02-17T14:31:52.866Z,39.15
2023-02-17T14:34:34.138Z,54.15
2023-02-17T14:37:19.799Z,24.02
2023-02-17T14:39:48.115Z,37.33
2023-02-17T14:42:17.447Z,41.38
2023-02-17T14:44:46.024Z,53.88
2023-02-17T14:47:14.359Z,65.50
2023-02-17T14:49:42.661Z,57.13
2023-02-17T14:52:22.734Z,42.30
2023-02-17T14:54:51.695Z,48.13
2023-02-17T14:57:27.314Z,26.17
2023-02-17T14:59:55.681Z,37.92
2023-02-17T15:02:24.490Z,38.17
2023-02-17T15:04:53.004Z,49.88
2023-02-17T15:07:21.182Z,45.80
2023-02-17T15:09:50.123Z,37.38
2023-02-17T15:12:22.536Z,48.88
2023-02-17T15:14:50.962Z,37.10
2023-02-17T15:17:19.291Z,32.65
2023-02-17T15:19:47.431Z,43.20
2023-02-17T15:22:15.990Z,31.92
2023-02-17T15:24:44.254Z,64.68
2023-02-17T15:27:15.188Z,44.38
2023-02-17T15:29:43.404Z,48.65
2023-02-17T15:32:18.236Z,35.65
2023-02-17T15:34:46.804Z,31.15
2023-02-17T15:37:15.052Z,30.73
2023-02-17T15:39:43.454Z,39.28
2023-02-17T15:42:14.332Z,40.30
2023-02-17T15:44:47.971Z,30.38
2023-02-17T15:47:20.033Z,48.67
2023-02-17T15:49:48.771Z,37.03
2023-02-17T15:52:16.990Z,30.80
2023-02-17T15:54:45.650Z,47.83
2023-02-17T15:57:23.859Z,43.80
2023-02-17T15:59:52.823Z,36.65
2023-02-17T16:02:24.468Z,35.72
2023-02-17T16:04:52.788Z,25.73
2023-02-17T16:07:20.944Z,33.25
2023-02-17T16:09:49.272Z,35.63
2023-02-17T16:12:21.032Z,28.25
2023-02-17T16:17:17.726Z,31.52
2023-02-17T16:19:46.117Z,32.17
2023-02-17T16:22:14.270Z,36.22
2023-02-17T16:24:42.646Z,31.63
2023-02-17T16:27:15.225Z,38.67
2023-02-17T16:29:44.110Z,37.83
2023-02-17T16:32:13.809Z,43.85
2023-02-17T16:34:42.434Z,29.65
2023-02-17T16:37:15.448Z,28.65
2023-02-17T16:39:45.055Z,36.42
2023-02-17T16:42:14.010Z,30.60
2023-02-17T16:44:42.660Z,32.17
2023-02-17T16:47:20.617Z,40.70
2023-02-17T16:49:49.683Z,31.33
2023-02-17T16:52:28.474Z,34.55
2023-02-17T16:54:56.822Z,50.88
2023-02-17T16:57:25.115Z,52.75
2023-02-17T16:59:53.503Z,37.42
2023-02-17T17:02:21.976Z,31.67
2023-02-17T17:04:51.110Z,35.97
2023-02-17T17:07:19.459Z,42.10
2023-02-17T17:10:14.838Z,42.55
2023-02-17T17:12:36.036Z,47.25
2023-02-17T17:15:04.946Z,41.30
2023-02-17T17:17:40.366Z,33.40
2023-02-17T17:20:13.037Z,44.92
2023-02-17T17:22:41.572Z,35.90
2023-02-17T17:25:10.188Z,39.00
2023-02-17T17:27:38.350Z,26.90
2023-02-17T17:30:08.941Z,36.65
2023-02-17T17:32:37.269Z,77.57
2023-02-17T17:35:05.658Z,37.15
2023-02-17T17:37:34.103Z,42.25
2023-02-17T17:40:02.303Z,52.72
2023-02-17T17:42:30.803Z,40.60
2023-02-17T17:44:59.404Z,59.13
2023-02-17T17:47:30.203Z,42.90
2023-02-17T17:49:58.852Z,43.15
2023-02-17T17:52:27.146Z,43.72
2023-02-17T17:54:55.386Z,40.17
2023-02-17T17:57:23.649Z,42.42
2023-02-17T17:59:52.767Z,34.50
2023-02-17T18:02:20.988Z,38.25
2023-02-17T18:04:49.572Z,39.58
2023-02-17T18:07:18.082Z,45.08
2023-02-17T18:09:46.325Z,43.83
2023-02-17T18:12:18.746Z,55.33
2023-02-17T18:14:51.048Z,90.70
2023-02-17T18:17:19.689Z,75.35
2023-02-17T18:19:49.016Z,53.13
2023-02-17T18:22:17.296Z,37.25
2023-02-17T18:24:45.709Z,72.25
2023-02-17T18:27:14.291Z,52.33
2023-02-17T18:29:43.181Z,47.65
2023-02-17T18:32:11.736Z,53.00
2023-02-17T18:34:40.050Z,66.43
2023-02-17T18:37:08.313Z,52.72
2023-02-17T18:39:36.692Z,51.95
2023-02-17T18:42:05.372Z,62.42
2023-02-17T18:44:34.461Z,59.60
2023-02-17T18:47:02.745Z,64.88
2023-02-17T18:49:31.209Z,74.38
2023-02-17T18:51:59.354Z,83.88
2023-02-17T18:54:27.826Z,62.28
2023-02-17T18:56:56.129Z,67.95
2023-02-17T18:59:24.457Z,45.47
2023-02-17T19:01:52.843Z,46.55
2023-02-17T19:04:20.980Z,57.88
2023-02-17T19:06:49.406Z,61.78
2023-02-17T19:09:17.778Z,56.70
2023-02-17T19:11:46.051Z,41.25
2023-02-17T19:14:14.959Z,78.93
2023-02-17T19:16:43.697Z,183.00
2023-02-17T19:19:11.936Z,172.73
2023-02-17T19:21:40.266Z,89.65
2023-02-17T19:24:08.597Z,74.03
2023-02-17T19:26:39.689Z,92.38
2023-02-17T19:29:08.036Z,161.70
2023-02-17T19:31:36.465Z,158.85
2023-02-17T19:34:04.942Z,130.90
2023-02-17T19:36:34.605Z,116.05
2023-02-17T19:39:05.822Z,147.70
2023-02-17T19:41:36.008Z,209.95
2023-02-17T19:44:04.619Z,160.68
2023-02-17T19:46:33.294Z,92.78
2023-02-17T19:49:01.582Z,126.57
2023-02-17T19:51:30.086Z,284.15
2023-02-17T19:53:59.657Z,212.88
2023-02-17T19:56:30.978Z,235.38
2023-02-17T19:58:59.673Z,215.23
2023-02-17T20:01:30.759Z,163.40
2023-02-17T20:04:00.705Z,117.17
2023-02-17T20:06:31.784Z,132.52
2023-02-17T20:09:07.544Z,99.78
2023-02-17T20:11:35.920Z,116.03
2023-02-17T20:14:04.509Z,169.73
2023-02-17T20:16:33.064Z,148.48
2023-02-17T20:19:02.766Z,132.10
2023-02-17T20:21:34.545Z,182.38
2023-02-17T20:24:03.372Z,276.33
2023-02-17T20:26:35.225Z,224.73
2023-02-17T20:29:04.077Z,188.95
2023-02-17T20:31:32.529Z,158.85
2023-02-17T20:34:04.124Z,179.18
2023-02-17T20:36:32.613Z,151.95
2023-02-17T20:39:02.113Z,220.73
2023-02-17T20:41:30.342Z,170.82
2023-02-17T20:43:58.858Z,135.48
2023-02-17T20:46:29.970Z,151.63
2023-02-17T20:48:58.369Z,212.10
2023-02-17T20:51:26.675Z,196.23
2023-02-17T20:53:54.953Z,198.90
2023-02-17T20:56:25.723Z,192.40
2023-02-17T20:58:54.183Z,149.32
2023-02-17T21:01:22.348Z,191.70
2023-02-17T21:03:50.741Z,224.55
2023-02-17T21:06:32.311Z,264.95
2023-02-17T21:09:06.689Z,231.77
2023-02-17T21:11:35.449Z,237.68
2023-02-17T21:14:04.084Z,200.57
2023-02-17T21:16:33.006Z,179.73
2023-02-17T21:19:02.051Z,151.68
2023-02-17T21:21:31.336Z,148.77
2023-02-17T21:24:00.322Z,134.70
2023-02-17T21:26:28.804Z,143.43
2023-02-17T21:28:57.292Z,138.15
2023-02-17T21:31:27.301Z,105.22
2023-02-17T21:33:55.936Z,120.68
2023-02-17T21:36:24.274Z,122.50
2023-02-17T21:38:52.696Z,145.18
2023-02-17T21:41:23.380Z,152.52
2023-02-17T21:43:51.903Z,165.65
2023-02-17T21:46:20.286Z,143.05
2023-02-17T21:48:50.481Z,144.73
2023-02-17T21:51:20.656Z,93.28
2023-02-17T21:53:49.032Z,100.68
2023-02-17T21:56:17.985Z,90.10
2023-02-17T21:58:51.890Z,101.28
2023-02-17T22:01:21.523Z,98.55
2023-02-17T22:03:49.951Z,102.85
2023-02-17T22:06:28.586Z,100.35
2023-02-17T22:08:58.433Z,80.45
2023-02-17T22:11:32.784Z,95.53
2023-02-17T22:14:07.438Z,102.38
2023-02-17T22:16:36.889Z,78.93
2023-02-17T22:19:10.334Z,77.13
2023-02-17T22:21:39.582Z,82.90
2023-02-17T22:24:08.154Z,120.55
2023-02-17T22:26:39.633Z,94.68
2023-02-17T22:29:18.379Z,75.25
2023-02-17T22:31:51.181Z,88.15
2023-02-17T22:34:20.083Z,105.22
2023-02-17T22:36:49.341Z,100.68
2023-02-17T22:39:19.997Z,114.28
2023-02-17T22:41:48.363Z,101.72
2023-02-17T22:44:17.417Z,107.32
2023-02-17T22:46:45.938Z,85.93
2023-02-17T22:49:17.409Z,116.20
2023-02-17T22:51:53.144Z,134.05
2023-02-17T22:54:23.928Z,165.80
2023-02-17T22:56:56.237Z,173.43
2023-02-17T22:59:48.069Z,145.52
2023-02-17T23:02:16.398Z,117.25
2023-02-17T23:04:45.012Z,121.38
2023-02-17T23:07:13.747Z,127.63
2023-02-17T23:09:42.223Z,97.82
2023-02-17T23:12:10.718Z,108.68
2023-02-17T23:14:41.120Z,111.22
2023-02-17T23:17:14.822Z,118.78
2023-02-17T23:19:43.613Z,135.98
2023-02-17T23:22:17.761Z,151.13
2023-02-17T23:24:53.304Z,141.65
2023-02-17T23:27:27.615Z,186.70
2023-02-17T23:30:06.611Z,111.15
2023-02-17T23:32:39.241Z,168.80
2023-02-17T23:35:09.651Z,171.48
2023-02-17T23:37:43.148Z,170.85
2023-02-17T23:40:15.684Z,169.27
2023-02-17T23:42:47.481Z,144.25
2023-02-17T23:45:16.831Z,197.95
2023-02-17T23:47:45.153Z,199.77
2023-02-17T23:50:15.532Z,195.13
2023-02-17T23:52:45.018Z,168.35
2023-02-17T23:55:13.338Z,151.20
2023-02-17T23:57:41.620Z,189.43
